Time;durP1;ratioP1;P1;durP2;ratioP2;P2;SDS_P1;SDS_P2;PMS_P1;PMS_P2;Temp;Humidity;BMP_temperature;BMP_pressure;BME280_temperature;BME280_humidity;BME280_pressure;Samples;Min_cycle;Max_cycle;Signal;HPM_P1;HPM_P2
2021/10/20 00:01:42;;;;;;;0.70;0.60;;;;;;;25.43;28.17;94706.63;4974689;28;20026;-83
2021/10/20 00:04:08;;;;;;;0.60;0.60;;;;;;;25.40;28.10;94691.22;4973968;28;20041;-83
2021/10/20 00:06:33;;;;;;;0.60;0.60;;;;;;;25.32;28.48;94674.81;4982663;28;20033;-83
2021/10/20 00:08:59;;;;;;;1.17;0.80;;;;;;;25.44;28.12;94693.06;4977818;28;20038;-83
2021/10/20 00:11:24;;;;;;;0.68;0.68;;;;;;;25.38;28.27;94680.06;4977552;28;20038;-83
2021/10/20 00:13:50;;;;;;;0.77;0.75;;;;;;;25.35;27.95;94666.25;4993855;28;20040;-83
2021/10/20 00:16:16;;;;;;;0.70;0.70;;;;;;;25.28;28.00;94652.50;4993792;28;20037;-83
2021/10/20 00:18:47;;;;;;;1.17;0.68;;;;;;;25.39;27.94;94661.16;5009176;28;20040;-83
2021/10/20 00:21:12;;;;;;;0.80;0.63;;;;;;;25.37;28.37;94660.66;4978738;28;20032;-83
2021/10/20 00:23:38;;;;;;;0.70;0.70;;;;;;;25.40;28.01;94659.28;4993334;28;20030;-84
2021/10/20 00:26:03;;;;;;;0.70;0.70;;;;;;;25.40;28.30;94657.44;4976777;28;20038;-84
2021/10/20 00:28:29;;;;;;;0.60;0.60;;;;;;;25.37;27.95;94647.34;4953161;28;20043;-84
2021/10/20 00:30:54;;;;;;;0.75;0.75;;;;;;;25.30;28.15;94636.25;4953680;28;20050;-83
2021/10/20 00:33:20;;;;;;;1.73;0.80;;;;;;;25.42;28.24;94659.78;4939647;28;20041;-83
2021/10/20 00:35:45;;;;;;;0.90;0.80;;;;;;;25.36;28.31;94646.56;4939132;28;20043;-84
2021/10/20 00:38:11;;;;;;;0.90;0.80;;;;;;;25.33;28.40;94641.78;4969998;28;20042;-83
2021/10/20 00:40:36;;;;;;;0.63;0.63;;;;;;;25.35;28.36;94639.63;4953844;28;20034;-83
2021/10/20 00:43:01;;;;;;;0.70;0.70;;;;;;;25.41;28.13;94648.34;4963181;28;20034;-83
2021/10/20 00:45:27;;;;;;;0.85;0.70;;;;;;;25.47;27.96;94654.41;4954737;28;20105;-83
2021/10/20 00:47:52;;;;;;;0.70;0.70;;;;;;;25.44;27.86;94649.66;4965751;28;20089;-83
2021/10/20 00:50:20;;;;;;;1.00;0.82;;;;;;;25.42;28.22;94628.66;4937571;28;20034;-83
2021/10/20 00:52:48;;;;;;;0.80;0.70;;;;;;;25.44;28.09;94636.34;4952034;28;20041;-84
2021/10/20 00:55:13;;;;;;;0.75;0.75;;;;;;;25.35;27.84;94621.00;4969856;28;20043;-82
2021/10/20 00:57:40;;;;;;;0.80;0.80;;;;;;;25.39;27.95;94626.53;4968808;28;20037;-83
2021/10/20 01:00:06;;;;;;;0.75;0.70;;;;;;;25.50;28.23;94643.97;4970321;28;20061;-83
2021/10/20 01:02:32;;;;;;;0.88;0.80;;;;;;;25.32;27.91;94608.28;4978059;28;20026;-83
2021/10/20 01:04:58;;;;;;;0.80;0.75;;;;;;;25.35;28.22;94614.88;4991820;28;20084;-84
2021/10/20 01:07:23;;;;;;;1.05;0.95;;;;;;;25.40;28.34;94622.81;5011432;28;20036;-83
2021/10/20 01:09:49;;;;;;;1.60;0.90;;;;;;;25.49;28.03;94630.94;4992642;28;20173;-83
2021/10/20 01:12:16;;;;;;;0.90;0.90;;;;;;;25.40;28.36;94622.81;4974252;28;20025;-83
2021/10/20 01:14:42;;;;;;;1.00;0.85;;;;;;;25.47;28.08;94627.78;4998339;28;20026;-83
2021/10/20 01:17:10;;;;;;;1.30;1.00;;;;;;;25.49;28.09;94622.97;4991983;28;20041;-84
2021/10/20 01:19:40;;;;;;;0.90;0.88;;;;;;;25.48;28.00;94605.41;5006481;28;20029;-83
2021/10/20 01:22:06;;;;;;;0.80;0.80;;;;;;;25.43;27.87;94610.78;4991078;28;20042;-84
2021/10/20 01:24:31;;;;;;;0.70;0.70;;;;;;;25.37;27.99;94591.44;4991604;28;20435;-83
2021/10/20 01:26:57;;;;;;;1.52;1.02;;;;;;;25.49;28.10;94613.13;4973318;28;20048;-84
2021/10/20 01:29:23;;;;;;;1.08;0.98;;;;;;;25.49;28.11;94604.31;5009543;28;20108;-83
2021/10/20 01:31:50;;;;;;;0.90;0.90;;;;;;;25.40;28.07;94590.06;5009617;28;20102;-84
2021/10/20 01:34:15;;;;;;;1.27;0.98;;;;;;;25.43;28.18;94594.81;4974544;28;20033;-84
2021/10/20 01:36:42;;;;;;;0.95;0.85;;;;;;;25.48;28.15;94606.19;4992613;28;20018;-83
2021/10/20 01:39:07;;;;;;;1.15;0.93;;;;;;;25.41;28.35;94591.66;4975846;28;20037;-83
2021/10/20 01:41:33;;;;;;;0.88;0.85;;;;;;;25.48;28.18;94595.56;4974742;28;20150;-83
2021/10/20 01:44:02;;;;;;;0.90;0.80;;;;;;;25.50;27.90;94574.75;4975059;28;20033;-83
2021/10/20 01:46:27;;;;;;;1.13;1.02;;;;;;;25.43;28.06;94581.50;4972834;28;20034;-83
2021/10/20 01:48:53;;;;;;;0.93;0.80;;;;;;;25.42;28.12;94563.94;4990308;28;20064;-84
2021/10/20 01:51:18;;;;;;;1.17;1.08;;;;;;;25.47;28.09;94570.00;4990918;28;20089;-84
2021/10/20 01:53:44;;;;;;;1.63;0.90;;;;;;;25.39;27.89;94551.22;5011496;28;20092;-83
2021/10/20 01:56:11;;;;;;;1.15;1.00;;;;;;;25.33;28.05;94540.63;4977930;28;20037;-83
2021/10/20 01:58:36;;;;;;;0.88;0.88;;;;;;;25.43;28.01;94554.88;4975764;28;20026;-83
2021/10/20 02:01:07;;;;;;;1.10;1.00;;;;;;;25.43;27.92;94557.56;5007121;28;20038;-83
2021/10/20 02:03:32;;;;;;;1.00;0.90;;;;;;;25.34;28.01;94539.56;5008073;28;20120;-83
2021/10/20 02:06:00;;;;;;;1.17;1.05;;;;;;;25.53;28.25;94565.38;4991464;28;20228;-83
2021/10/20 02:08:26;;;;;;;0.85;0.85;;;;;;;25.40;28.11;94548.28;4976010;28;20033;-83
2021/10/20 02:10:51;;;;;;;1.08;0.98;;;;;;;25.36;27.98;94534.75;4994336;28;20030;-83
2021/10/20 02:13:19;;;;;;;1.25;0.95;;;;;;;25.39;28.26;94529.94;5007671;28;20057;-83
2021/10/20 02:15:44;;;;;;;1.00;0.90;;;;;;;25.40;27.91;94536.81;4989636;28;20042;-83
2021/10/20 02:18:12;;;;;;;0.90;0.80;;;;;;;25.46;27.92;94538.34;5015073;28;20045;-83
2021/10/20 02:20:38;;;;;;;2.25;0.90;;;;;;;25.46;28.10;94530.38;4973072;28;20053;-83
2021/10/20 02:23:06;;;;;;;1.08;0.98;;;;;;;25.39;28.13;94511.28;5006856;28;20059;-83
2021/10/20 02:25:31;;;;;;;1.23;0.93;;;;;;;25.51;28.30;94538.25;5007724;28;20033;-83
2021/10/20 02:27:59;;;;;;;0.88;0.88;;;;;;;25.52;28.29;94530.00;4974341;28;20034;-83
2021/10/20 02:30:25;;;;;;;0.82;0.82;;;;;;;25.43;28.20;94518.41;4990582;28;20037;-84
2021/10/20 02:32:51;;;;;;;1.35;1.00;;;;;;;25.44;28.02;94516.56;4991809;28;20092;-83
2021/10/20 02:35:17;;;;;;;0.98;0.95;;;;;;;25.46;28.27;94514.41;4989786;28;20030;-83
2021/10/20 02:37:45;;;;;;;1.08;0.90;;;;;;;25.45;28.23;94507.47;4990577;28;20030;-84
2021/10/20 02:40:11;;;;;;;1.00;0.90;;;;;;;25.47;28.15;94503.44;5000644;28;20088;-83
2021/10/20 02:42:37;;;;;;;1.20;1.10;;;;;;;25.42;28.37;94492.88;4989560;28;20065;-83
2021/10/20 02:45:03;;;;;;;1.10;1.00;;;;;;;25.45;28.13;94502.94;4989388;28;20038;-83
2021/10/20 02:47:28;;;;;;;1.05;0.95;;;;;;;25.38;28.10;94483.06;4975048;28;20122;-84
2021/10/20 02:49:54;;;;;;;1.10;0.85;;;;;;;25.42;28.41;94484.06;4988987;28;20030;-83
2021/10/20 02:52:19;;;;;;;0.90;0.90;;;;;;;25.46;28.02;94488.56;4973467;28;20034;-83
2021/10/20 02:54:45;;;;;;;1.13;1.02;;;;;;;25.40;28.30;94468.41;4990871;28;20057;-83
2021/10/20 02:57:10;;;;;;;1.25;1.10;;;;;;;25.53;28.40;94488.16;4990341;28;20037;-83
2021/10/20 02:59:36;;;;;;;1.02;1.00;;;;;;;25.39;28.15;94466.81;5007301;28;20036;-83
2021/10/20 03:02:01;;;;;;;1.15;0.98;;;;;;;25.48;28.00;94474.97;4974178;28;20022;-83
2021/10/20 03:04:27;;;;;;;1.30;1.15;;;;;;;25.47;28.16;94471.47;4989465;28;20053;-83
2021/10/20 03:06:52;;;;;;;1.00;0.90;;;;;;;25.55;28.44;94480.69;5011528;28;20060;-83
2021/10/20 03:09:18;;;;;;;1.05;0.98;;;;;;;25.47;28.24;94466.16;4970353;28;20033;-83
2021/10/20 03:11:43;;;;;;;1.10;1.00;;;;;;;25.55;28.15;94475.34;4972662;28;20030;-83
2021/10/20 03:14:09;;;;;;;1.20;1.10;;;;;;;25.45;28.21;94459.56;4991477;28;20153;-83
2021/10/20 03:16:35;;;;;;;1.35;1.25;;;;;;;25.45;28.23;94455.00;4972810;28;20097;-83
2021/10/20 03:19:00;;;;;;;1.10;1.00;;;;;;;25.38;28.39;94443.16;4988430;28;20057;-83
2021/10/20 03:21:29;;;;;;;1.20;1.10;;;;;;;25.51;27.81;94458.38;4990597;28;20037;-83
2021/10/20 03:23:54;;;;;;;1.20;1.10;;;;;;;25.53;28.30;94470.34;4989191;28;20040;-83
2021/10/20 03:26:20;;;;;;;1.10;1.00;;;;;;;25.41;28.09;94448.69;4987967;28;20086;-83
2021/10/20 03:28:45;;;;;;;1.10;1.00;;;;;;;25.49;28.03;94457.88;4974759;28;20037;-84
2021/10/20 03:31:11;;;;;;;1.10;1.10;;;;;;;25.44;27.96;94450.00;4988431;28;20029;-83
2021/10/20 03:33:36;;;;;;;1.30;1.20;;;;;;;25.50;28.05;94467.47;4974331;28;20048;-83
2021/10/20 03:36:02;;;;;;;1.30;1.20;;;;;;;25.56;27.92;94468.97;4977701;28;20034;-84
2021/10/20 03:38:27;;;;;;;1.10;1.00;;;;;;;25.49;28.23;94460.56;4972442;28;20057;-83
2021/10/20 03:40:53;;;;;;;1.10;1.00;;;;;;;25.50;27.84;94454.16;4976532;28;20034;-83
2021/10/20 03:43:19;;;;;;;1.23;1.13;;;;;;;25.56;27.97;94460.97;5009496;28;20014;-83
2021/10/20 03:45:44;;;;;;;1.08;0.98;;;;;;;25.50;28.20;94452.28;4977960;28;20045;-83
2021/10/20 03:48:10;;;;;;;1.08;1.08;;;;;;;25.53;28.00;94450.91;4994683;28;20037;-84
2021/10/20 03:50:35;;;;;;;1.40;1.23;;;;;;;25.56;27.97;94451.09;4988512;28;20038;-83
2021/10/20 03:53:01;;;;;;;1.40;1.10;;;;;;;25.49;27.90;94441.91;4972161;28;20052;-83
2021/10/20 03:55:26;;;;;;;1.23;1.13;;;;;;;25.51;27.85;94439.75;4994416;28;20038;-83
2021/10/20 03:57:52;;;;;;;1.33;1.13;;;;;;;25.46;28.15;94434.53;5008841;28;20021;-83
2021/10/20 04:00:17;;;;;;;1.88;0.93;;;;;;;25.55;27.82;94438.09;5007981;28;20033;-83
2021/10/20 04:02:46;;;;;;;1.20;1.05;;;;;;;25.59;28.03;94433.78;4977755;28;20060;-84
2021/10/20 04:05:16;;;;;;;1.40;1.30;;;;;;;25.61;27.92;94434.28;4976650;28;20040;-84
2021/10/20 04:07:42;;;;;;;1.10;1.00;;;;;;;25.43;27.73;94414.56;4976537;28;20139;-84
2021/10/20 04:10:10;;;;;;;1.15;1.05;;;;;;;25.56;27.94;94435.13;4994952;28;20053;-84
2021/10/20 04:12:35;;;;;;;1.35;1.17;;;;;;;25.53;28.08;94434.91;4992387;28;20022;-84
2021/10/20 04:15:01;;;;;;;1.30;1.20;;;;;;;25.59;27.25;94439.09;4977511;28;20080;-82
2021/10/20 04:17:26;;;;;;;1.05;1.00;;;;;;;25.60;27.67;94438.00;5009153;28;20094;-84
2021/10/20 04:19:51;;;;;;;1.00;0.90;;;;;;;25.52;27.85;94428.03;4993826;28;20034;-83
2021/10/20 04:22:17;;;;;;;1.10;0.98;;;;;;;25.44;27.81;94418.06;5009293;28;20037;-83
2021/10/20 04:24:43;;;;;;;1.35;1.00;;;;;;;25.52;27.54;94418.16;4992244;28;20033;-83
2021/10/20 04:27:08;;;;;;;0.93;0.90;;;;;;;25.54;27.75;94429.31;5007291;28;20029;-83
2021/10/20 04:29:34;;;;;;;1.42;1.00;;;;;;;25.51;27.61;94415.78;4974754;28;20022;-83
2021/10/20 04:32:00;;;;;;;0.90;0.90;;;;;;;25.55;27.88;94419.44;5007100;28;20061;-83
2021/10/20 04:34:25;;;;;;;1.58;0.90;;;;;;;25.61;27.90;94436.94;5009583;28;20030;-83
2021/10/20 04:36:50;;;;;;;1.05;0.95;;;;;;;25.60;27.38;94435.34;4993236;28;20056;-83
2021/10/20 04:39:16;;;;;;;1.00;1.00;;;;;;;25.59;27.59;94436.44;4988408;28;20048;-83
2021/10/20 04:41:41;;;;;;;0.93;0.93;;;;;;;25.56;27.59;94429.03;4975820;28;20042;-83
2021/10/20 04:44:12;;;;;;;0.80;0.80;;;;;;;25.67;27.70;94429.66;4992980;28;20044;-83
2021/10/20 04:46:37;;;;;;;1.92;1.05;;;;;;;25.62;27.53;94435.84;4991391;28;20118;-83
2021/10/20 04:49:03;;;;;;;1.17;1.02;;;;;;;25.62;27.62;94437.72;5005011;28;20113;-83
2021/10/20 04:51:28;;;;;;;1.10;1.00;;;;;;;25.55;27.68;94422.09;4992508;28;20038;-83
2021/10/20 04:53:53;;;;;;;1.10;1.00;;;;;;;25.62;27.39;94435.84;4992343;28;20022;-83
2021/10/20 04:56:19;;;;;;;1.10;1.00;;;;;;;25.58;27.50;94428.75;4992720;28;20042;-82
2021/10/20 04:58:44;;;;;;;1.20;1.10;;;;;;;25.55;27.65;94419.44;4974646;28;20038;-83
2021/10/20 05:01:14;;;;;;;1.10;1.00;;;;;;;25.63;27.28;94418.78;4975060;28;20032;-83
2021/10/20 05:03:42;;;;;;;0.98;0.98;;;;;;;25.57;27.44;94422.63;5015242;28;20112;-83
2021/10/20 05:06:08;;;;;;;0.90;0.90;;;;;;;25.64;27.64;94431.00;4998526;28;20049;-83
2021/10/20 05:08:35;;;;;;;0.93;0.90;;;;;;;25.63;27.46;94434.78;5007746;28;20038;-83
2021/10/20 05:11:01;;;;;;;1.05;0.95;;;;;;;25.57;27.55;94409.31;4983270;28;20034;-83
2021/10/20 05:13:27;;;;;;;1.13;1.02;;;;;;;25.59;27.19;94406.34;4990576;28;20084;-83
2021/10/20 05:15:52;;;;;;;1.10;1.00;;;;;;;25.54;27.28;94393.91;4989494;28;20042;-83
2021/10/20 05:18:18;;;;;;;0.80;0.80;;;;;;;25.59;27.56;94391.19;5008960;28;20030;-82
2021/10/20 05:20:43;;;;;;;1.30;1.05;;;;;;;25.59;27.38;94391.19;4990707;28;20042;-83
2021/10/20 05:23:11;;;;;;;0.88;0.88;;;;;;;25.57;27.26;94388.00;4991386;28;20034;-84
2021/10/20 05:25:38;;;;;;;1.10;1.00;;;;;;;25.66;27.47;94401.44;5009433;28;20098;-83
2021/10/20 05:28:07;;;;;;;1.10;1.00;;;;;;;25.54;27.32;94378.72;5004977;28;20061;-83
2021/10/20 05:30:32;;;;;;;1.08;1.08;;;;;;;25.46;27.60;94366.09;4989969;28;20031;-83
2021/10/20 05:32:58;;;;;;;1.05;0.95;;;;;;;25.65;27.19;94386.56;4991732;28;20029;-83
2021/10/20 05:35:23;;;;;;;0.95;0.90;;;;;;;25.66;27.22;94388.91;4974899;28;20065;-82
2021/10/20 05:37:50;;;;;;;0.98;0.98;;;;;;;25.56;27.34;94367.78;4994201;28;20037;-83
2021/10/20 05:40:16;;;;;;;0.90;0.90;;;;;;;25.55;27.52;94363.53;4994228;28;20056;-83
2021/10/20 05:42:41;;;;;;;1.10;1.00;;;;;;;25.51;27.06;94363.34;5010804;28;20029;-83
2021/10/20 05:45:07;;;;;;;0.90;0.90;;;;;;;25.62;27.38;94379.91;4995189;28;20046;-82
2021/10/20 05:47:33;;;;;;;0.95;0.80;;;;;;;25.56;27.35;94371.22;4976893;28;20033;-83
2021/10/20 05:50:01;;;;;;;0.90;0.80;;;;;;;25.56;27.29;94367.78;5012222;28;20030;-82
2021/10/20 05:52:28;;;;;;;0.75;0.75;;;;;;;25.65;27.01;94390.00;4975743;28;20054;-82
2021/10/20 05:54:54;;;;;;;1.05;0.95;;;;;;;25.58;27.30;94378.94;4994158;28;20040;-83
2021/10/20 05:57:21;;;;;;;1.05;0.95;;;;;;;25.67;27.16;94398.47;5009351;28;20030;-82
2021/10/20 05:59:47;;;;;;;0.85;0.85;;;;;;;25.56;27.46;94381.88;4995981;28;20026;-83
2021/10/20 06:02:14;;;;;;;1.02;1.02;;;;;;;25.68;27.20;94399.25;5010978;28;20069;-83
2021/10/20 06:04:39;;;;;;;1.10;1.05;;;;;;;25.67;27.18;94398.47;5027633;28;20048;-82
2021/10/20 06:07:05;;;;;;;1.10;1.00;;;;;;;25.61;27.26;94391.66;5003044;28;20026;-83
2021/10/20 06:09:30;;;;;;;1.08;1.00;;;;;;;25.64;27.13;94395.63;5022226;28;20030;-82
2021/10/20 06:11:56;;;;;;;0.90;0.90;;;;;;;25.64;27.17;94396.41;5009233;28;20018;-82
2021/10/20 06:14:21;;;;;;;0.90;0.90;;;;;;;25.59;27.42;94385.84;5013268;28;20038;-83
2021/10/20 06:16:47;;;;;;;1.13;1.02;;;;;;;25.60;27.26;94387.41;4974770;28;20045;-83
2021/10/20 06:19:12;;;;;;;0.93;0.93;;;;;;;25.64;26.97;94393.72;4978036;28;20038;-83
2021/10/20 06:21:38;;;;;;;1.17;1.00;;;;;;;25.65;27.36;94392.66;4993389;28;20088;-83
2021/10/20 06:24:04;;;;;;;0.90;0.90;;;;;;;25.64;27.01;94392.94;4992391;28;20034;-83
2021/10/20 06:26:29;;;;;;;1.20;1.10;;;;;;;25.68;27.20;94404.59;4993019;28;20037;-83
2021/10/20 06:28:55;;;;;;;1.30;1.00;;;;;;;25.64;27.43;94393.72;4991377;28;20030;-83
2021/10/20 06:31:21;;;;;;;1.10;1.00;;;;;;;25.59;27.30;94391.19;4992895;28;20033;-83
2021/10/20 06:33:46;;;;;;;1.17;1.08;;;;;;;25.62;27.46;94395.13;4976458;28;20120;-83
2021/10/20 06:36:22;;;;;;;1.10;0.90;;;;;;;25.66;27.37;94391.56;4976771;28;20034;-84
2021/10/20 06:38:47;;;;;;;1.10;1.00;;;;;;;25.67;27.22;94403.81;4975968;28;20328;-83
2021/10/20 06:41:13;;;;;;;1.17;1.08;;;;;;;25.56;27.46;94386.44;4975390;28;20104;-82
2021/10/20 06:43:38;;;;;;;1.35;0.93;;;;;;;25.60;27.25;94392.75;4974334;28;20018;-83
2021/10/20 06:46:04;;;;;;;1.10;1.00;;;;;;;25.67;27.42;94413.69;4991198;28;20132;-84
2021/10/20 06:48:29;;;;;;;1.30;1.20;;;;;;;25.65;27.13;94411.31;5007483;28;20036;-83
2021/10/20 06:50:55;;;;;;;1.10;1.00;;;;;;;25.66;27.45;94407.53;4974511;28;20067;-83
2021/10/20 06:53:24;;;;;;;1.10;1.00;;;;;;;25.66;27.27;94407.53;4992158;28;20061;-83
2021/10/20 06:55:52;;;;;;;1.20;1.10;;;;;;;25.65;27.40;94403.31;4991651;28;22142;-83
2021/10/20 06:58:19;;;;;;;1.20;1.10;;;;;;;25.60;27.83;94400.72;4989283;28;20071;-83
2021/10/20 07:00:45;;;;;;;1.05;1.02;;;;;;;25.65;27.29;94413.97;4991211;28;20034;-83
2021/10/20 07:03:10;;;;;;;1.02;0.93;;;;;;;25.66;27.40;94412.88;4974461;28;20036;-84
2021/10/20 07:05:35;;;;;;;1.17;1.08;;;;;;;25.65;27.72;94419.28;4976590;28;20034;-83
2021/10/20 07:08:03;;;;;;;1.20;1.10;;;;;;;25.64;27.78;94417.69;4988533;28;20038;-83
2021/10/20 07:10:36;;;;;;;1.13;1.02;;;;;;;25.65;27.62;94427.28;5005219;28;20034;-83
2021/10/20 07:13:03;;;;;;;1.00;1.00;;;;;;;25.65;27.91;94427.28;4990816;28;20025;-83
2021/10/20 07:15:32;;;;;;;1.20;1.10;;;;;;;25.58;27.59;94421.53;4993466;28;20065;-83
2021/10/20 07:18:00;;;;;;;1.13;1.02;;;;;;;25.72;27.87;94435.69;4994837;28;20034;-83
2021/10/20 07:20:26;;;;;;;1.30;1.00;;;;;;;25.66;28.00;94436.84;5011167;28;20037;-83
2021/10/20 07:22:51;;;;;;;1.60;1.00;;;;;;;25.67;27.94;94441.09;4994095;28;20049;-83
2021/10/20 07:25:21;;;;;;;1.10;1.00;;;;;;;25.66;27.93;94442.16;4979515;28;20088;-83
2021/10/20 07:27:47;;;;;;;1.38;1.20;;;;;;;25.67;27.90;94448.31;4969177;28;20053;-84
2021/10/20 07:30:15;;;;;;;0.90;0.90;;;;;;;25.67;27.74;94446.41;4977685;28;20042;-84
2021/10/20 07:32:41;;;;;;;1.13;1.00;;;;;;;25.68;27.92;94449.88;4994668;28;20064;-84
2021/10/20 07:35:12;;;;;;;1.05;0.95;;;;;;;25.72;28.07;94438.34;4994138;28;20052;-84
2021/10/20 07:37:38;;;;;;;1.35;1.13;;;;;;;25.68;27.96;94445.34;4978609;28;20025;-83
2021/10/20 07:40:04;;;;;;;1.15;0.90;;;;;;;25.67;27.93;94442.97;4994282;28;20022;-83
2021/10/20 07:42:30;;;;;;;1.50;1.20;;;;;;;25.69;28.18;94446.13;4989417;28;20131;-83
2021/10/20 07:44:55;;;;;;;1.20;1.10;;;;;;;25.67;28.25;94433.09;4993070;28;20097;-83
2021/10/20 07:47:26;;;;;;;1.08;0.98;;;;;;;25.68;28.10;94441.88;4978943;28;20041;-84
2021/10/20 07:49:54;;;;;;;1.00;0.93;;;;;;;25.69;28.01;94446.13;4992582;28;20034;-83
2021/10/20 07:52:20;;;;;;;0.93;0.90;;;;;;;25.70;28.12;94440.53;4994443;28;20033;-83
2021/10/20 07:54:46;;;;;;;1.27;1.10;;;;;;;25.68;28.34;94445.34;4993291;28;20052;-83
2021/10/20 07:57:14;;;;;;;1.25;1.15;;;;;;;25.68;28.06;94447.19;4976603;28;20029;-84
2021/10/20 07:59:40;;;;;;;1.20;1.10;;;;;;;25.70;28.47;94435.19;5008375;28;20030;-82
2021/10/20 08:02:05;;;;;;;1.38;1.00;;;;;;;25.69;28.31;94430.94;4977167;28;20057;-83
2021/10/20 08:04:33;;;;;;;1.42;1.00;;;;;;;25.70;28.52;94432.53;5009474;28;20076;-85
2021/10/20 08:06:58;;;;;;;2.35;1.13;;;;;;;25.72;28.60;94433.03;4994077;28;20034;-84
2021/10/20 08:09:24;;;;;;;1.20;1.10;;;;;;;25.72;28.71;94427.69;4992024;28;20080;-83
2021/10/20 08:11:49;;;;;;;1.88;1.10;;;;;;;25.72;28.52;94417.06;4993504;28;20032;-84
2021/10/20 08:14:17;;;;;;;0.90;0.90;;;;;;;25.71;28.53;94415.44;4992651;28;20088;-83
2021/10/20 08:16:42;;;;;;;1.30;1.05;;;;;;;25.72;28.59;94416.22;4993445;28;20029;-84
2021/10/20 08:19:08;;;;;;;1.67;0.90;;;;;;;25.75;28.50;94405.00;4993918;28;20038;-83
2021/10/20 08:21:33;;;;;;;1.88;1.00;;;;;;;25.77;28.57;94412.72;5009967;28;20054;-84
2021/10/20 08:23:58;;;;;;;1.20;1.10;;;;;;;25.77;28.78;94413.50;4993281;28;20034;-84
2021/10/20 08:26:24;;;;;;;0.98;0.98;;;;;;;25.79;28.53;94418.53;4979362;28;20044;-83
2021/10/20 08:28:50;;;;;;;1.02;0.93;;;;;;;25.78;28.65;94411.63;5008530;28;20057;-84
2021/10/20 08:31:17;;;;;;;1.27;1.10;;;;;;;25.72;28.44;94405.59;4976154;28;20092;-84
2021/10/20 08:33:45;;;;;;;0.82;0.82;;;;;;;25.86;28.18;94413.63;5008752;28;20028;-83
2021/10/20 08:36:11;;;;;;;1.40;1.17;;;;;;;25.75;28.52;94405.78;4993403;28;20044;-84
2021/10/20 08:38:38;;;;;;;1.30;1.20;;;;;;;25.72;28.45;94400.25;4976964;28;20034;-83
2021/10/20 08:41:04;;;;;;;1.20;1.10;;;;;;;25.69;28.44;94390.22;4993805;28;20037;-83
2021/10/20 08:43:30;;;;;;;1.60;1.10;;;;;;;25.67;28.31;94384.38;4993609;28;20025;-84
2021/10/20 08:45:57;;;;;;;1.27;1.17;;;;;;;25.77;28.20;94386.84;4992472;28;20029;-83
2021/10/20 08:48:24;;;;;;;1.77;1.20;;;;;;;25.74;28.48;94382.91;5010775;28;20045;-84
2021/10/20 08:50:59;;;;;;;1.90;1.00;;;;;;;25.81;28.27;94376.41;4992337;28;20041;-84
2021/10/20 08:53:24;;;;;;;1.20;1.10;;;;;;;25.69;28.49;94369.69;4978272;28;20026;-84
2021/10/20 08:55:50;;;;;;;1.13;1.02;;;;;;;25.73;28.22;94367.22;4972455;28;20042;-84
2021/10/20 08:58:16;;;;;;;2.22;1.70;;;;;;;25.75;28.29;94367.72;4991058;28;20081;-84
2021/10/20 09:00:41;;;;;;;1.60;1.50;;;;;;;25.74;28.11;94368.78;5008991;28;20034;-83
2021/10/20 09:03:07;;;;;;;1.45;1.35;;;;;;;25.74;28.30;94363.47;4990743;28;20033;-84
2021/10/20 09:05:34;;;;;;;1.55;1.45;;;;;;;25.81;28.35;94384.41;4993770;28;20041;-84
2021/10/20 09:08:00;;;;;;;1.50;1.40;;;;;;;25.70;28.21;94365.13;4992139;28;20038;-83
2021/10/20 09:10:27;;;;;;;1.48;1.38;;;;;;;25.68;28.18;94360.13;4974510;28;20033;-84
2021/10/20 09:12:55;;;;;;;1.50;1.40;;;;;;;25.80;28.52;94372.16;4992032;28;20040;-83
2021/10/20 09:15:24;;;;;;;1.70;1.25;;;;;;;25.80;28.11;94359.66;4976729;28;20117;-83
2021/10/20 09:17:54;;;;;;;2.08;1.30;;;;;;;25.70;28.36;94360.63;4974495;28;20030;-84
2021/10/20 09:20:46;;;;;;;1.40;1.30;;;;;;;25.79;28.51;94381.25;4994192;28;20044;-84
2021/10/20 09:23:23;;;;;;;1.50;1.40;;;;;;;25.78;28.12;94356.50;4914437;29;20067;-84
2021/10/20 09:25:57;;;;;;;1.40;1.30;;;;;;;25.72;28.44;94362.97;4914048;29;20035;-83
2021/10/20 09:28:26;;;;;;;1.60;1.40;;;;;;;25.84;28.48;94375.84;4907188;29;20036;-84
2021/10/20 09:30:52;;;;;;;1.53;1.43;;;;;;;25.65;28.60;94363.38;4898028;29;20185;-84
2021/10/20 09:33:17;;;;;;;2.65;1.60;;;;;;;25.72;28.72;94379.75;4909503;29;20130;-83
2021/10/20 09:35:43;;;;;;;1.65;1.48;;;;;;;25.69;28.18;94383.00;4920851;29;20047;-83
2021/10/20 09:38:08;;;;;;;2.33;1.40;;;;;;;25.71;28.69;94374.72;4896806;29;20098;-84
2021/10/20 09:40:40;;;;;;;1.45;1.25;;;;;;;25.75;28.57;94373.81;4896730;29;20094;-84
2021/10/20 09:43:42;;;;;;;1.48;1.38;;;;;;;25.75;28.58;94362.41;5059103;28;20415;-83
2021/10/20 09:46:07;;;;;;;1.27;1.17;;;;;;;25.71;28.63;94370.19;5017073;28;20068;-83
2021/10/20 09:48:40;;;;;;;1.38;1.27;;;;;;;25.81;28.08;94358.53;5024002;28;20072;-83
2021/10/20 09:51:10;;;;;;;1.40;1.30;;;;;;;25.83;28.46;94369.69;5003650;28;20021;-84
2021/10/20 09:53:37;;;;;;;;;;;;;;;25.97;28.35;94371.63;5011831;28;20017;-84
2021/10/20 09:56:25;;;;;;;1.30;1.20;;;;;;;25.93;28.49;94363.41;5042447;28;20043;-83
2021/10/20 09:58:52;;;;;;;1.17;1.08;;;;;;;25.83;28.29;94368.91;4996738;28;20033;-84
2021/10/20 10:01:18;;;;;;;1.45;1.35;;;;;;;25.75;28.62;94354.41;5006077;28;20037;-83
2021/10/20 10:03:43;;;;;;;1.35;1.25;;;;;;;25.67;28.32;94336.44;4988599;28;20053;-83
2021/10/20 10:06:09;;;;;;;1.65;1.40;;;;;;;25.67;28.16;94333.78;5005266;28;20034;-83
2021/10/20 10:08:34;;;;;;;1.30;1.20;;;;;;;25.81;28.69;94361.22;4992578;28;20034;-84
2021/10/20 10:11:04;;;;;;;1.48;1.33;;;;;;;25.81;28.51;94349.78;4989374;28;20029;-83
2021/10/20 10:13:30;;;;;;;;;;;;;;;26.03;27.95;94349.91;5010187;28;20034;-83
2021/10/20 10:15:56;;;;;;;1.27;1.17;;;;;;;25.87;28.21;94343.25;5024118;28;19984;-83
2021/10/20 10:18:21;;;;;;;1.52;1.27;;;;;;;25.84;28.47;94338.53;4987571;28;20037;-83
2021/10/20 10:20:47;;;;;;;1.50;1.40;;;;;;;25.74;28.07;94329.66;5007446;28;20056;-83
2021/10/20 10:23:19;;;;;;;1.60;1.50;;;;;;;25.94;27.88;94333.03;4988039;28;20113;-83
2021/10/20 10:25:45;;;;;;;1.30;1.20;;;;;;;25.77;28.08;94327.47;5008310;28;20054;-83
2021/10/20 10:28:28;;;;;;;1.38;1.25;;;;;;;25.95;27.94;94334.63;5022614;28;20068;-83
2021/10/20 10:30:58;;;;;;;1.20;1.10;;;;;;;25.81;28.17;94315.16;4991238;28;20030;-84
2021/10/20 10:33:25;;;;;;;;;;;;;;;26.08;27.82;94323.19;4987301;28;20032;-83
2021/10/20 10:36:05;;;;;;;1.30;1.20;;;;;;;26.04;27.78;94313.41;5004802;28;19971;-83
2021/10/20 10:38:35;;;;;;;1.80;1.50;;;;;;;25.92;27.59;94292.59;5023780;28;20080;-83
2021/10/20 10:41:31;;;;;;;1.40;1.30;;;;;;;26.01;27.62;94304.13;4986424;28;20211;-83
2021/10/20 10:44:11;;;;;;;1.38;1.15;;;;;;;26.00;27.62;94325.72;5011632;28;20049;-83
2021/10/20 10:46:44;;;;;;;1.45;1.35;;;;;;;25.90;27.61;94310.72;5018475;28;20053;-83
2021/10/20 10:49:28;;;;;;;1.70;1.60;;;;;;;25.98;27.63;94299.38;4989601;28;20033;-83
2021/10/20 10:52:18;;;;;;;1.65;1.42;;;;;;;25.97;27.96;94300.47;5011878;28;20029;-83
2021/10/20 10:54:57;;;;;;;1.40;1.30;;;;;;;25.97;27.89;94294.34;4996456;28;20032;-83
2021/10/20 10:57:25;;;;;;;1.83;1.50;;;;;;;25.86;27.79;94299.84;4992813;28;20117;-83
2021/10/20 10:59:56;;;;;;;1.38;1.27;;;;;;;25.86;27.71;94299.06;4973353;28;20030;-83
2021/10/20 11:02:43;;;;;;;1.50;1.40;;;;;;;25.97;27.66;94299.69;4974647;28;20029;-83
2021/10/20 11:05:11;;;;;;;1.50;1.30;;;;;;;25.83;28.03;94295.09;5026374;28;20089;-83
2021/10/20 11:07:39;;;;;;;1.40;1.30;;;;;;;25.86;27.74;94299.06;4978391;28;20038;-83
2021/10/20 11:10:05;;;;;;;1.80;1.25;;;;;;;25.82;27.87;94284.78;4991065;28;20034;-83
2021/10/20 11:12:31;;;;;;;1.95;1.58;;;;;;;25.85;27.43;94294.81;4990533;28;20022;-84
2021/10/20 11:14:57;;;;;;;1.60;1.45;;;;;;;25.84;28.01;94307.34;4991746;28;20039;-83
2021/10/20 11:17:22;;;;;;;1.60;1.50;;;;;;;25.83;28.08;94302.31;4993144;28;20112;-84
2021/10/20 11:19:48;;;;;;;1.55;1.45;;;;;;;25.83;27.56;94295.09;4992224;28;20038;-83
2021/10/20 11:22:24;;;;;;;1.42;1.33;;;;;;;25.89;27.72;94285.16;4973644;28;20053;-83
2021/10/20 11:24:52;;;;;;;1.70;1.50;;;;;;;25.69;28.04;94252.50;4978115;28;20030;-83
2021/10/20 11:27:21;;;;;;;1.40;1.30;;;;;;;25.84;27.72;94263.97;4976569;28;20030;-83
2021/10/20 11:29:47;;;;;;;1.40;1.30;;;;;;;25.78;28.24;94265.13;4986939;28;20066;-83
2021/10/20 11:32:14;;;;;;;3.38;1.27;;;;;;;25.75;28.23;94255.84;5002509;28;20018;-84
2021/10/20 11:34:39;;;;;;;1.38;1.27;;;;;;;25.71;28.09;94245.00;4975821;28;20041;-83